createdAt,value
2023-11-18T00:01:52.669Z,96.60
2023-11-18T00:03:58.501Z,96.70
2023-11-18T00:06:04.714Z,96.60
2023-11-18T00:08:08.512Z,96.70
2023-11-18T00:10:16.393Z,96.70
2023-11-18T00:12:22.451Z,96.80
2023-11-18T00:14:27.626Z,96.90
2023-11-18T00:16:33.144Z,96.90
2023-11-18T00:18:35.919Z,96.90
2023-11-18T00:20:40.812Z,96.80
2023-11-18T00:22:46.026Z,96.80
2023-11-18T00:24:51.186Z,96.80
2023-11-18T00:26:59.887Z,96.70
2023-11-18T00:29:05.317Z,96.60
2023-11-18T00:31:10.570Z,96.70
2023-11-18T00:33:15.920Z,96.90
2023-11-18T00:35:18.612Z,97.00
2023-11-18T00:37:23.930Z,97.10
2023-11-18T00:39:29.438Z,97.10
2023-11-18T00:41:34.602Z,97.00
2023-11-18T00:43:42.537Z,97.00
2023-11-18T00:45:48.233Z,96.80
2023-11-18T00:47:51.342Z,96.70
2023-11-18T00:49:56.579Z,96.60
2023-11-18T00:52:02.773Z,96.60
2023-11-18T00:54:08.733Z,96.70
2023-11-18T00:56:19.307Z,96.70
2023-11-18T00:58:25.501Z,96.60
2023-11-18T01:00:33.102Z,96.50
2023-11-18T01:02:40.193Z,96.60
2023-11-18T01:04:46.939Z,96.70
2023-11-18T01:06:54.418Z,96.80
2023-11-18T01:08:59.925Z,96.80
2023-11-18T01:11:02.532Z,96.70
2023-11-18T01:13:07.734Z,96.50
2023-11-18T01:15:11.843Z,96.60
2023-11-18T01:17:24.034Z,96.70
2023-11-18T01:19:29.657Z,96.70
2023-11-18T01:21:34.844Z,96.60
2023-11-18T01:23:43.862Z,96.70
2023-11-18T01:25:52.339Z,96.60
2023-11-18T01:27:59.048Z,96.70
2023-11-18T01:30:05.517Z,96.60
2023-11-18T01:32:13.379Z,96.50
2023-11-18T01:34:23.344Z,96.20
2023-11-18T01:36:28.830Z,96.30
2023-11-18T01:38:34.438Z,96.10
2023-11-18T01:40:39.827Z,96.30
2023-11-18T01:42:48.177Z,96.20
2023-11-18T01:44:53.940Z,96.30
2023-11-18T01:46:59.474Z,96.30
2023-11-18T01:49:05.724Z,96.60
2023-11-18T01:51:11.889Z,96.50
2023-11-18T01:53:17.750Z,96.50
2023-11-18T01:55:23.026Z,96.60
2023-11-18T01:57:28.581Z,96.50
2023-11-18T01:59:34.738Z,96.50
2023-11-18T02:01:44.654Z,96.30
2023-11-18T02:03:50.562Z,96.10
2023-11-18T02:05:55.951Z,96.10
2023-11-18T02:08:05.665Z,96.00
2023-11-18T02:10:12.755Z,96.20
2023-11-18T02:12:31.941Z,96.50
2023-11-18T02:14:38.764Z,96.40
2023-11-18T02:16:46.662Z,96.30
2023-11-18T02:18:55.015Z,96.50
2023-11-18T02:21:01.259Z,96.70
2023-11-18T02:23:09.384Z,96.70
2023-11-18T02:25:20.574Z,96.50
2023-11-18T02:27:28.798Z,96.60
2023-11-18T02:29:37.025Z,96.60
2023-11-18T02:31:43.212Z,96.60
2023-11-18T02:33:54.432Z,96.60
2023-11-18T02:36:09.842Z,96.70
2023-11-18T02:38:15.706Z,96.80
2023-11-18T02:40:27.047Z,96.90
2023-11-18T02:42:36.191Z,96.70
2023-11-18T02:44:42.804Z,96.60
2023-11-18T02:46:46.240Z,96.20
2023-11-18T02:48:55.763Z,96.20
2023-11-18T02:51:00.926Z,96.30
2023-11-18T02:53:07.042Z,96.40
2023-11-18T02:55:10.599Z,96.40
2023-11-18T02:57:16.350Z,96.70
2023-11-18T02:59:24.373Z,96.50
2023-11-18T03:01:28.786Z,96.50
2023-11-18T03:03:35.108Z,96.30
2023-11-18T03:05:40.944Z,96.20
2023-11-18T03:07:48.982Z,96.20
2023-11-18T03:09:54.171Z,96.40
2023-11-18T03:12:00.726Z,96.50
2023-11-18T03:14:06.141Z,96.60
2023-11-18T03:16:14.882Z,96.50
2023-11-18T03:18:21.969Z,96.60
2023-11-18T03:20:29.014Z,96.30
2023-11-18T03:22:32.857Z,96.40
2023-11-18T03:24:37.995Z,96.50
2023-11-18T03:26:43.112Z,96.40
2023-11-18T03:28:48.783Z,96.30
2023-11-18T03:30:51.803Z,96.20
2023-11-18T03:32:59.567Z,96.20
2023-11-18T03:35:02.454Z,96.10
2023-11-18T03:37:08.540Z,96.20
2023-11-18T03:39:13.974Z,96.20
2023-11-18T03:41:19.879Z,96.30
2023-11-18T03:43:25.061Z,96.20
2023-11-18T03:45:30.192Z,96.40
2023-11-18T03:47:35.504Z,96.40
2023-11-18T03:49:43.313Z,96.50
2023-11-18T03:51:49.203Z,96.50
2023-11-18T03:53:54.669Z,96.40
2023-11-18T03:55:59.900Z,96.50
2023-11-18T03:58:05.198Z,96.40
2023-11-18T04:00:12.849Z,96.30
2023-11-18T04:02:19.070Z,96.30
2023-11-18T04:04:24.607Z,96.30
2023-11-18T04:06:32.815Z,96.40
2023-11-18T04:08:38.866Z,96.30
2023-11-18T04:10:41.857Z,96.30
2023-11-18T04:12:48.274Z,96.50
2023-11-18T04:14:53.710Z,96.50
2023-11-18T04:16:59.609Z,96.60
2023-11-18T04:19:04.861Z,96.70
2023-11-18T04:21:11.494Z,96.60
2023-11-18T04:23:19.972Z,96.80
2023-11-18T04:25:23.038Z,96.70
2023-11-18T04:27:28.704Z,96.70
2023-11-18T04:29:34.362Z,96.60
2023-11-18T04:31:38.631Z,96.60
2023-11-18T04:33:44.328Z,96.20
2023-11-18T04:35:50.787Z,96.00
2023-11-18T04:37:56.596Z,96.20
2023-11-18T04:40:03.147Z,96.20
2023-11-18T04:42:10.267Z,96.00
2023-11-18T04:44:17.800Z,96.00
2023-11-18T04:46:23.598Z,96.20
2023-11-18T04:48:29.574Z,95.90
2023-11-18T04:50:35.730Z,96.00
2023-11-18T04:52:41.605Z,95.90
2023-11-18T04:54:44.872Z,95.80
2023-11-18T04:56:52.627Z,96.00
2023-11-18T04:58:57.864Z,96.00
2023-11-18T05:01:02.986Z,95.90
2023-11-18T05:03:06.602Z,96.00
2023-11-18T05:05:12.609Z,96.00
2023-11-18T05:07:19.065Z,96.00
2023-11-18T05:09:24.224Z,96.10
2023-11-18T05:11:29.359Z,96.00
2023-11-18T05:13:37.716Z,95.90
2023-11-18T05:15:43.983Z,95.80
2023-11-18T05:17:49.162Z,95.90
2023-11-18T05:19:54.580Z,95.80
2023-11-18T05:22:01.260Z,96.00
2023-11-18T05:24:06.957Z,95.90
2023-11-18T05:26:12.162Z,96.00
2023-11-18T05:28:15.103Z,95.80
2023-11-18T05:30:24.501Z,95.80
2023-11-18T05:32:31.687Z,95.70
2023-11-18T05:34:36.908Z,95.80
2023-11-18T05:36:42.235Z,95.60
2023-11-18T05:38:49.671Z,95.80
2023-11-18T05:40:58.451Z,95.60
2023-11-18T05:43:06.639Z,95.60
2023-11-18T05:45:19.109Z,95.70
2023-11-18T05:47:27.718Z,95.70
2023-11-18T05:49:30.367Z,95.90
2023-11-18T05:51:36.796Z,96.10
2023-11-18T05:53:46.845Z,96.20
2023-11-18T05:55:52.689Z,95.70
2023-11-18T05:57:58.346Z,95.70
2023-11-18T06:00:06.715Z,95.60
2023-11-18T06:02:20.025Z,95.50
2023-11-18T06:04:27.886Z,95.60
2023-11-18T06:06:33.927Z,95.50
2023-11-18T06:08:40.256Z,95.60
2023-11-18T06:10:46.095Z,95.90
2023-11-18T06:12:51.254Z,95.90
2023-11-18T06:14:56.411Z,95.80
2023-11-18T06:17:02.174Z,96.10
2023-11-18T06:19:08.045Z,95.90
2023-11-18T06:21:18.588Z,95.60
2023-11-18T06:23:24.351Z,95.90
2023-11-18T06:25:31.523Z,95.50
2023-11-18T06:27:36.661Z,95.60
2023-11-18T06:29:41.809Z,95.50
2023-11-18T06:31:47.353Z,95.70
2023-11-18T06:33:50.566Z,95.50
2023-11-18T06:35:56.446Z,95.20
2023-11-18T06:38:04.182Z,95.00
2023-11-18T06:40:18.020Z,95.60
2023-11-18T06:42:24.884Z,95.40
2023-11-18T06:44:30.582Z,95.10
2023-11-18T06:46:35.577Z,95.40
2023-11-18T06:48:42.009Z,95.20
2023-11-18T06:50:48.540Z,95.30
2023-11-18T06:52:52.372Z,95.30
2023-11-18T06:55:00.238Z,95.30
2023-11-18T06:57:05.945Z,95.60
2023-11-18T06:59:11.529Z,95.60
2023-11-18T07:01:16.467Z,95.50
2023-11-18T07:03:23.104Z,95.50
2023-11-18T07:05:28.844Z,95.50
2023-11-18T07:07:33.930Z,95.50
2023-11-18T07:09:40.679Z,95.70
2023-11-18T07:11:49.401Z,95.50
2023-11-18T07:13:58.241Z,95.50
2023-11-18T07:16:05.177Z,95.60
2023-11-18T07:18:10.382Z,95.50
2023-11-18T07:20:16.633Z,95.70
2023-11-18T07:22:22.029Z,95.60
2023-11-18T07:24:24.893Z,95.80
2023-11-18T07:26:30.024Z,95.60
2023-11-18T07:28:38.056Z,95.70
2023-11-18T07:30:43.854Z,95.60
2023-11-18T07:32:49.415Z,95.70
2023-11-18T07:34:56.059Z,95.60
2023-11-18T07:37:01.129Z,95.70
2023-11-18T07:39:17.696Z,95.80
2023-11-18T07:41:31.790Z,95.90
2023-11-18T07:43:42.271Z,95.90
2023-11-18T07:45:45.253Z,95.80
2023-11-18T07:47:52.235Z,95.90
2023-11-18T07:49:57.383Z,96.00
2023-11-18T07:52:00.374Z,96.00
2023-11-18T07:54:06.003Z,96.00
2023-11-18T07:56:13.530Z,96.10
2023-11-18T07:58:19.821Z,96.00
2023-11-18T08:00:27.801Z,96.00
2023-11-18T08:02:30.345Z,96.00
2023-11-18T08:04:36.622Z,96.10
2023-11-18T08:06:39.713Z,96.10
2023-11-18T08:08:44.807Z,96.20
2023-11-18T08:10:49.898Z,96.00
2023-11-18T08:12:55.493Z,96.00
2023-11-18T08:15:01.291Z,95.80
2023-11-18T08:17:09.058Z,95.90
2023-11-18T08:19:14.323Z,96.00
2023-11-18T08:21:19.380Z,95.90
2023-11-18T08:23:24.600Z,95.80
2023-11-18T08:25:27.414Z,95.80
2023-11-18T08:27:32.478Z,95.60
2023-11-18T08:29:38.002Z,95.70
2023-11-18T08:31:45.408Z,95.60
2023-11-18T08:33:55.757Z,95.60
2023-11-18T08:35:58.217Z,95.50
2023-11-18T08:38:05.391Z,95.30
2023-11-18T08:40:16.200Z,95.40
2023-11-18T08:42:21.773Z,95.30
2023-11-18T08:44:27.232Z,95.00
2023-11-18T08:46:29.833Z,95.00
2023-11-18T08:48:35.403Z,94.40
2023-11-18T08:50:44.715Z,94.70
2023-11-18T08:52:49.046Z,94.80
2023-11-18T08:55:06.678Z,94.90
2023-11-18T08:57:25.457Z,95.00
2023-11-18T08:59:31.976Z,95.00
2023-11-18T09:01:37.126Z,95.00
2023-11-18T09:03:44.728Z,95.20
2023-11-18T09:05:58.155Z,95.20
2023-11-18T09:08:07.455Z,95.30
2023-11-18T09:10:13.503Z,95.40
2023-11-18T09:12:20.617Z,95.30
2023-11-18T09:14:26.041Z,95.30
2023-11-18T09:16:32.165Z,94.90
2023-11-18T09:18:41.435Z,95.00
2023-11-18T09:20:46.621Z,94.80
2023-11-18T09:22:57.052Z,95.10
2023-11-18T09:25:02.313Z,95.10
2023-11-18T09:27:10.625Z,94.80
2023-11-18T09:29:19.279Z,95.00
2023-11-18T09:31:25.522Z,94.50
2023-11-18T09:33:36.682Z,94.40
2023-11-18T09:35:41.836Z,94.30
2023-11-18T09:37:48.183Z,94.30
2023-11-18T09:39:59.978Z,93.70
2023-11-18T09:42:05.154Z,93.40
2023-11-18T09:44:13.353Z,93.30
2023-11-18T09:46:23.314Z,92.60
2023-11-18T09:48:29.660Z,92.90
2023-11-18T09:50:39.366Z,92.60
2023-11-18T09:52:53.842Z,92.00
2023-11-18T09:55:16.227Z,91.80
2023-11-18T09:57:35.955Z,92.90
2023-11-18T09:59:56.267Z,92.00
2023-11-18T10:02:03.486Z,93.00
2023-11-18T10:04:12.302Z,92.20
2023-11-18T10:06:17.868Z,92.60
2023-11-18T10:08:27.126Z,91.90
2023-11-18T10:10:38.396Z,91.30
2023-11-18T10:12:46.934Z,91.30
2023-11-18T10:14:53.405Z,91.50
2023-11-18T10:16:59.699Z,91.30
2023-11-18T10:19:10.046Z,90.00
2023-11-18T10:21:19.152Z,91.60
2023-11-18T10:23:29.115Z,90.50
2023-11-18T10:25:36.067Z,91.20
2023-11-18T10:27:41.869Z,90.50
2023-11-18T10:29:48.138Z,90.30
2023-11-18T10:31:55.321Z,90.20
2023-11-18T10:34:04.004Z,90.40
2023-11-18T10:36:23.797Z,90.00
2023-11-18T10:38:32.071Z,89.70
2023-11-18T10:40:39.708Z,90.30
2023-11-18T10:42:50.159Z,89.30
2023-11-18T10:45:03.356Z,91.00
2023-11-18T10:47:12.938Z,90.20
2023-11-18T10:49:20.753Z,90.20
2023-11-18T10:51:28.153Z,90.40
2023-11-18T10:53:34.220Z,89.40
2023-11-18T10:55:43.276Z,89.90
2023-11-18T10:57:45.875Z,89.50
2023-11-18T11:00:04.462Z,89.60
2023-11-18T11:02:25.470Z,89.60
2023-11-18T11:04:46.628Z,89.50
2023-11-18T11:06:58.207Z,88.60
2023-11-18T11:09:01.253Z,88.70
2023-11-18T11:11:18.050Z,88.40
2023-11-18T11:13:24.644Z,88.00
2023-11-18T11:15:44.998Z,88.80
2023-11-18T11:18:03.941Z,89.10
2023-11-18T11:20:19.446Z,88.40
2023-11-18T11:22:34.181Z,89.00
2023-11-18T11:25:10.091Z,88.60
2023-11-18T11:27:30.532Z,88.50
2023-11-18T11:29:45.843Z,88.60
2023-11-18T11:32:02.100Z,88.40
2023-11-18T11:34:12.322Z,89.00
2023-11-18T11:36:29.656Z,87.90
2023-11-18T11:38:37.207Z,88.50
2023-11-18T11:40:44.468Z,88.70
2023-11-18T11:42:56.692Z,88.10
2023-11-18T11:45:03.800Z,87.60
2023-11-18T11:47:10.735Z,87.30
2023-11-18T11:49:22.187Z,87.80
2023-11-18T11:51:37.212Z,88.40
2023-11-18T11:53:47.717Z,88.30
2023-11-18T11:56:06.336Z,87.30
2023-11-18T11:58:30.361Z,87.80
2023-11-18T12:00:36.452Z,87.20
2023-11-18T12:02:42.701Z,88.20
2023-11-18T12:04:48.447Z,87.70
2023-11-18T12:07:05.910Z,87.50
2023-11-18T12:09:21.179Z,87.60
2023-11-18T12:11:28.948Z,86.10
2023-11-18T12:13:40.678Z,87.60
2023-11-18T12:15:56.235Z,87.90
2023-11-18T12:18:18.999Z,87.10
2023-11-18T12:20:43.971Z,87.30
2023-11-18T12:23:15.848Z,87.20
2023-11-18T12:25:40.337Z,87.10
2023-11-18T12:27:53.350Z,86.40
2023-11-18T12:30:01.347Z,85.20
2023-11-18T12:32:14.039Z,85.00
2023-11-18T12:34:19.157Z,85.50
2023-11-18T12:37:09.009Z,85.80
2023-11-18T12:40:13.667Z,85.60
2023-11-18T12:43:06.199Z,86.40
2023-11-18T12:45:52.347Z,86.20
2023-11-18T12:48:03.484Z,85.50
2023-11-18T12:50:19.557Z,85.20
2023-11-18T12:52:29.129Z,85.70
2023-11-18T12:54:35.000Z,86.50
2023-11-18T12:56:41.524Z,85.00
2023-11-18T12:58:47.015Z,85.80
2023-11-18T13:00:55.514Z,85.70
2023-11-18T13:03:01.304Z,86.30
2023-11-18T13:05:10.776Z,86.50
2023-11-18T13:07:15.966Z,86.80
2023-11-18T13:09:26.477Z,86.80
2023-11-18T13:11:34.517Z,86.80
2023-11-18T13:13:40.231Z,87.00
2023-11-18T13:15:45.376Z,87.60
2023-11-18T13:18:07.990Z,87.90
2023-11-18T13:20:19.280Z,87.70
2023-11-18T13:22:35.510Z,88.30
2023-11-18T13:24:48.400Z,88.50
2023-11-18T13:26:53.621Z,88.90
2023-11-18T13:28:59.554Z,88.90
2023-11-18T13:31:09.137Z,88.80
2023-11-18T13:33:17.845Z,89.10
2023-11-18T13:35:25.102Z,89.10
2023-11-18T13:37:30.598Z,89.10
2023-11-18T13:39:39.857Z,89.60
2023-11-18T13:41:46.204Z,89.50
2023-11-18T13:43:53.746Z,89.60
2023-11-18T13:45:58.204Z,89.70
2023-11-18T13:48:04.765Z,89.70
2023-11-18T13:50:15.271Z,89.90
2023-11-18T13:52:22.224Z,90.10
2023-11-18T13:54:28.114Z,90.00
2023-11-18T13:56:34.559Z,90.20
2023-11-18T13:58:39.525Z,90.00
2023-11-18T14:00:45.144Z,90.30
2023-11-18T14:02:52.784Z,90.20
2023-11-18T14:05:00.249Z,90.40
2023-11-18T14:07:10.682Z,90.30
2023-11-18T14:09:17.191Z,90.50
2023-11-18T14:11:22.872Z,90.40
2023-11-18T14:13:32.184Z,90.50
2023-11-18T14:15:38.188Z,90.40
2023-11-18T14:17:46.130Z,90.80
2023-11-18T14:19:53.727Z,90.90
2023-11-18T14:21:59.796Z,91.00
2023-11-18T14:24:09.150Z,91.30
2023-11-18T14:26:15.086Z,91.60
2023-11-18T14:28:20.250Z,91.80
2023-11-18T14:30:26.333Z,92.20
2023-11-18T14:32:31.436Z,92.20
2023-11-18T14:34:36.560Z,92.50
2023-11-18T14:36:43.068Z,92.40
2023-11-18T14:38:48.749Z,92.80
2023-11-18T14:40:57.819Z,92.70
2023-11-18T14:43:03.116Z,92.90
2023-11-18T14:45:10.804Z,92.70
2023-11-18T14:47:16.664Z,92.90
2023-11-18T14:49:21.830Z,93.10
2023-11-18T14:51:28.075Z,93.20
2023-11-18T14:53:33.181Z,93.30
2023-11-18T14:55:38.890Z,93.50
2023-11-18T14:57:48.105Z,93.70
2023-11-18T14:59:53.203Z,93.80
2023-11-18T15:01:59.634Z,94.10
2023-11-18T15:04:07.349Z,94.20
2023-11-18T15:06:13.447Z,94.20
2023-11-18T15:08:18.777Z,94.20
2023-11-18T15:10:24.481Z,94.30
2023-11-18T15:12:30.205Z,94.50
2023-11-18T15:14:41.674Z,94.50
2023-11-18T15:16:48.735Z,94.40
2023-11-18T15:18:54.208Z,94.40
2023-11-18T15:20:59.423Z,94.50
2023-11-18T15:23:02.728Z,94.50
2023-11-18T15:25:11.923Z,94.40
2023-11-18T15:27:17.707Z,94.60
2023-11-18T15:29:29.554Z,94.50
2023-11-18T15:31:42.793Z,94.50
2023-11-18T15:33:47.807Z,94.70
2023-11-18T15:35:53.015Z,94.70
2023-11-18T15:37:58.745Z,94.80
2023-11-18T15:40:01.222Z,94.80
2023-11-18T15:42:07.033Z,94.90
2023-11-18T15:44:12.829Z,94.90
2023-11-18T15:46:19.083Z,94.80
2023-11-18T15:48:27.590Z,95.10
2023-11-18T15:50:30.634Z,95.20
2023-11-18T15:52:37.725Z,95.20
2023-11-18T15:54:44.428Z,95.10
2023-11-18T15:56:49.481Z,95.20
2023-11-18T15:58:54.721Z,95.30
2023-11-18T16:01:00.626Z,95.30
2023-11-18T16:03:09.830Z,95.30
2023-11-18T16:05:20.236Z,95.30
2023-11-18T16:07:24.263Z,95.10
2023-11-18T16:09:29.400Z,95.00
2023-11-18T16:11:34.509Z,95.00
2023-11-18T16:13:40.149Z,95.10
2023-11-18T16:15:46.440Z,94.90
2023-11-18T16:17:50.942Z,94.90
2023-11-18T16:19:57.141Z,94.90
2023-11-18T16:22:04.921Z,95.10
2023-11-18T16:24:12.405Z,94.90
2023-11-18T16:26:19.357Z,95.00
2023-11-18T16:28:24.836Z,94.90
2023-11-18T16:30:31.809Z,95.10
2023-11-18T16:32:37.580Z,95.00
2023-11-18T16:34:43.288Z,95.00
2023-11-18T16:36:50.246Z,94.90
2023-11-18T16:39:00.635Z,95.00
2023-11-18T16:41:05.919Z,94.90
2023-11-18T16:43:11.606Z,95.10
2023-11-18T16:45:16.485Z,95.00
2023-11-18T16:47:23.209Z,95.10
2023-11-18T16:49:26.035Z,95.10
2023-11-18T16:51:31.141Z,95.10
2023-11-18T16:53:36.789Z,95.20
2023-11-18T16:55:44.968Z,95.20
2023-11-18T16:57:53.679Z,95.10
2023-11-18T17:00:00.406Z,95.10
2023-11-18T17:02:03.111Z,95.10
2023-11-18T17:04:09.471Z,95.00
2023-11-18T17:06:12.036Z,95.00
2023-11-18T17:08:17.351Z,94.90
2023-11-18T17:10:24.366Z,94.80
2023-11-18T17:12:32.503Z,94.50
2023-11-18T17:14:38.726Z,94.70
2023-11-18T17:16:44.064Z,94.50
2023-11-18T17:18:49.529Z,94.20
2023-11-18T17:20:52.548Z,94.00
2023-11-18T17:22:57.515Z,94.30
2023-11-18T17:25:03.207Z,94.60
2023-11-18T17:27:08.945Z,94.70
2023-11-18T17:29:18.016Z,94.80
2023-11-18T17:31:26.262Z,94.70
2023-11-18T17:33:32.640Z,94.90
2023-11-18T17:35:37.952Z,95.00
2023-11-18T17:37:40.608Z,95.00
2023-11-18T17:39:45.673Z,94.90
2023-11-18T17:41:50.763Z,94.90
2023-11-18T17:43:56.188Z,94.80
2023-11-18T17:46:05.098Z,95.10
2023-11-18T17:48:10.290Z,95.00
2023-11-18T17:50:18.826Z,94.90
2023-11-18T17:52:25.408Z,94.90
2023-11-18T17:54:31.066Z,95.00
2023-11-18T17:56:36.735Z,95.10
2023-11-18T17:58:41.923Z,95.00
2023-11-18T18:00:47.484Z,94.90
2023-11-18T18:02:53.174Z,94.90
2023-11-18T18:04:58.966Z,94.70
2023-11-18T18:07:04.940Z,94.70
2023-11-18T18:09:10.992Z,94.90
2023-11-18T18:11:16.095Z,94.70
2023-11-18T18:13:22.189Z,94.70
2023-11-18T18:15:28.703Z,94.50
2023-11-18T18:17:31.626Z,94.50
2023-11-18T18:19:41.456Z,94.70
2023-11-18T18:21:46.527Z,94.70
2023-11-18T18:23:51.595Z,94.90
2023-11-18T18:25:56.983Z,94.70
2023-11-18T18:28:02.086Z,95.00
2023-11-18T18:30:09.775Z,95.00
2023-11-18T18:32:14.997Z,94.60
2023-11-18T18:34:23.423Z,94.60
2023-11-18T18:36:31.282Z,94.90
2023-11-18T18:38:36.384Z,94.90
2023-11-18T18:40:42.131Z,94.70
2023-11-18T18:42:47.234Z,94.40
2023-11-18T18:44:49.764Z,94.70
2023-11-18T18:46:55.714Z,94.90
2023-11-18T18:48:58.221Z,94.70
2023-11-18T18:51:03.948Z,95.10
2023-11-18T18:53:11.731Z,94.70
2023-11-18T18:55:17.480Z,94.50
2023-11-18T18:57:23.069Z,94.60
2023-11-18T18:59:28.719Z,94.50
2023-11-18T19:01:33.856Z,94.90
2023-11-18T19:03:39.051Z,95.00
2023-11-18T19:05:44.433Z,95.10
2023-11-18T19:07:49.580Z,95.20
2023-11-18T19:09:57.781Z,95.30
2023-11-18T19:12:02.860Z,95.10
2023-11-18T19:14:08.690Z,95.10
2023-11-18T19:16:13.825Z,94.90
2023-11-18T19:18:19.064Z,95.30
2023-11-18T19:20:24.402Z,95.30
2023-11-18T19:22:27.407Z,95.30
2023-11-18T19:24:32.568Z,95.40
2023-11-18T19:26:40.219Z,95.20
2023-11-18T19:28:45.344Z,95.40
2023-11-18T19:30:50.397Z,95.40
2023-11-18T19:32:55.554Z,95.30
2023-11-18T19:35:01.155Z,95.40
2023-11-18T19:37:06.257Z,95.60
2023-11-18T19:39:11.592Z,95.60
2023-11-18T19:41:16.841Z,95.30
2023-11-18T19:43:26.767Z,95.40
2023-11-18T19:45:32.232Z,95.20
2023-11-18T19:47:37.889Z,95.00
2023-11-18T19:49:43.146Z,94.90
2023-11-18T19:51:46.798Z,95.00
2023-11-18T19:53:52.450Z,95.10
2023-11-18T19:55:54.977Z,95.10
2023-11-18T19:58:01.432Z,95.30
2023-11-18T20:00:13.284Z,95.40
2023-11-18T20:02:19.559Z,95.20
2023-11-18T20:04:26.227Z,95.30
2023-11-18T20:06:31.637Z,95.20
2023-11-18T20:08:36.777Z,95.20
2023-11-18T20:10:41.873Z,95.30
2023-11-18T20:12:47.581Z,95.40
2023-11-18T20:14:53.669Z,95.40
2023-11-18T20:17:01.457Z,95.50
2023-11-18T20:19:06.878Z,95.50
2023-11-18T20:21:12.204Z,95.40
2023-11-18T20:23:18.240Z,95.50
2023-11-18T20:25:23.448Z,95.50
2023-11-18T20:27:28.524Z,95.50
2023-11-18T20:29:34.962Z,95.70
2023-11-18T20:31:40.462Z,95.60
2023-11-18T20:33:48.623Z,95.70
2023-11-18T20:35:55.063Z,95.70
2023-11-18T20:38:03.202Z,95.60
2023-11-18T20:40:12.525Z,95.70
2023-11-18T20:42:17.827Z,95.80
2023-11-18T20:44:23.002Z,95.70
2023-11-18T20:46:28.154Z,95.70
2023-11-18T20:48:33.517Z,95.70
2023-11-18T20:50:41.411Z,95.80
2023-11-18T20:52:47.316Z,95.80
2023-11-18T20:54:52.633Z,95.70
2023-11-18T20:56:57.689Z,95.60
2023-11-18T20:59:00.308Z,95.70
2023-11-18T21:01:05.631Z,95.60
2023-11-18T21:03:11.084Z,95.60
2023-11-18T21:05:17.813Z,95.30
2023-11-18T21:07:25.595Z,95.40
2023-11-18T21:09:31.227Z,95.30
2023-11-18T21:11:36.412Z,95.40
2023-11-18T21:13:43.353Z,95.50
2023-11-18T21:15:48.432Z,95.60
2023-11-18T21:17:53.593Z,95.50
2023-11-18T21:19:58.726Z,95.30
2023-11-18T21:22:03.820Z,95.00
2023-11-18T21:24:12.496Z,95.20
2023-11-18T21:26:18.348Z,94.90
2023-11-18T21:28:23.447Z,95.10
2023-11-18T21:30:28.555Z,95.00
2023-11-18T21:32:33.660Z,95.10
2023-11-18T21:34:38.844Z,95.20
2023-11-18T21:36:41.377Z,95.10
2023-11-18T21:38:53.508Z,95.20
2023-11-18T21:41:02.370Z,95.00
2023-11-18T21:43:07.466Z,94.80
2023-11-18T21:45:13.481Z,94.80
2023-11-18T21:47:19.471Z,94.60
2023-11-18T21:49:24.561Z,94.70
2023-11-18T21:51:31.101Z,94.60
2023-11-18T21:53:36.642Z,94.60
2023-11-18T21:55:41.725Z,94.80
2023-11-18T21:57:50.479Z,94.90
2023-11-18T21:59:53.660Z,94.90
2023-11-18T22:02:00.508Z,95.10
2023-11-18T22:04:06.494Z,95.10
2023-11-18T22:06:09.416Z,95.10
2023-11-18T22:08:20.477Z,95.20
2023-11-18T22:10:26.968Z,95.00
2023-11-18T22:12:32.615Z,95.20
2023-11-18T22:14:40.352Z,95.10
2023-11-18T22:16:45.828Z,95.20
2023-11-18T22:18:53.895Z,95.30
2023-11-18T22:20:59.593Z,95.40
2023-11-18T22:23:06.721Z,95.30
2023-11-18T22:25:14.237Z,95.30
2023-11-18T22:27:19.304Z,95.30
2023-11-18T22:29:24.390Z,95.30
2023-11-18T22:31:33.055Z,95.30
2023-11-18T22:33:39.520Z,95.30
2023-11-18T22:35:42.641Z,95.40
2023-11-18T22:37:47.758Z,95.30
2023-11-18T22:39:55.557Z,95.30
2023-11-18T22:42:00.722Z,95.30
2023-11-18T22:44:08.060Z,95.30
2023-11-18T22:46:12.204Z,95.40
2023-11-18T22:48:20.977Z,95.50
2023-11-18T22:50:26.147Z,95.40
2023-11-18T22:52:31.228Z,95.10
2023-11-18T22:54:36.364Z,95.20
2023-11-18T22:56:41.950Z,95.00
2023-11-18T22:58:47.014Z,95.00
2023-11-18T23:00:56.317Z,95.10
2023-11-18T23:02:58.964Z,95.20
2023-11-18T23:05:14.795Z,95.10
2023-11-18T23:07:19.987Z,95.30
2023-11-18T23:09:26.157Z,95.20
2023-11-18T23:11:31.257Z,95.20
2023-11-18T23:13:36.930Z,95.20
2023-11-18T23:15:40.669Z,95.30
2023-11-18T23:17:46.922Z,95.10
2023-11-18T23:19:52.040Z,95.10
2023-11-18T23:21:59.727Z,95.10
2023-11-18T23:24:05.300Z,95.10
2023-11-18T23:26:10.829Z,95.20
2023-11-18T23:28:18.236Z,95.20
2023-11-18T23:30:24.607Z,95.20
2023-11-18T23:32:27.363Z,94.90
2023-11-18T23:34:32.436Z,94.90
2023-11-18T23:36:40.143Z,95.10
2023-11-18T23:38:47.949Z,94.80
2023-11-18T23:40:50.908Z,95.10
2023-11-18T23:42:56.069Z,95.10
2023-11-18T23:45:02.568Z,95.10
2023-11-18T23:47:08.353Z,94.90
2023-11-18T23:49:13.996Z,95.10
2023-11-18T23:51:19.763Z,95.20
2023-11-18T23:53:24.793Z,95.60
2023-11-18T23:55:33.755Z,95.70
2023-11-18T23:57:36.258Z,96.00
2023-11-18T23:59:43.315Z,96.30
